Terminal Aerodrome Forecast
Issued by NWS Albany, NY

Home | Current Version | Previous Version | Text Only | Print | Product List | Glossary On
Versions: 1 2 3 4 5 6 7 8 9 10 11 12 13 14
256
FTUS41 KALY 281720
TAFPOU
TAF
KPOU 281720Z 2818/2918 22006KT P6SM FEW150 SCT250
     FM290200 16003KT P6SM SCT050 SCT150 BKN250
     FM291500 31008KT P6SM SKC=

USA.gov is the U.S. government's official web portal to all federal, state and local government web resources and services.